Time;durP1;ratioP1;P1;durP2;ratioP2;P2;SDS_P1;SDS_P2;PMS_P1;PMS_P2;Temp;Humidity;BMP_temperature;BMP_pressure;BME280_temperature;BME280_humidity;BME280_pressure;Samples;Min_cycle;Max_cycle;Signal;HPM_P1;HPM_P2
2022/12/31 00:00:25;;;;;;;13.07;2.13;;;7.90;99.90;;;;;;4988175;28;20167;-61
2022/12/31 00:02:52;;;;;;;22.10;3.25;;;8.00;99.90;;;;;;4987495;28;20062;-62
2022/12/31 00:05:21;;;;;;;21.60;2.33;;;8.00;99.90;;;;;;4987983;28;20057;-60
2022/12/31 00:07:49;;;;;;;16.98;2.08;;;8.00;99.90;;;;;;4988955;28;20054;-59
2022/12/31 00:10:16;;;;;;;17.17;1.90;;;8.10;99.90;;;;;;4988487;28;20038;-58
2022/12/31 00:12:44;;;;;;;18.38;1.98;;;8.10;99.90;;;;;;4987903;28;20050;-59
2022/12/31 00:15:11;;;;;;;24.45;2.15;;;8.10;99.90;;;;;;4986933;28;20046;-58
2022/12/31 00:17:39;;;;;;;13.38;1.67;;;8.20;99.90;;;;;;4988627;28;20138;-59
2022/12/31 00:20:07;;;;;;;19.75;1.80;;;8.20;99.90;;;;;;4993113;28;20054;-58
2022/12/31 00:22:35;;;;;;;20.42;2.08;;;8.30;99.90;;;;;;4990822;28;20069;-58
2022/12/31 00:25:03;;;;;;;15.52;2.50;;;8.30;99.90;;;;;;4988057;28;20042;-58
2022/12/31 00:27:31;;;;;;;12.63;2.72;;;8.30;99.90;;;;;;5012163;28;20037;-59
2022/12/31 00:29:59;;;;;;;15.82;2.15;;;8.40;99.90;;;;;;4987361;28;20498;-59
2022/12/31 00:32:31;;;;;;;16.52;1.85;;;8.40;99.90;;;;;;4983022;28;20316;-60
2022/12/31 00:34:59;;;;;;;18.23;2.60;;;8.40;99.90;;;;;;4992118;28;20043;-61
2022/12/31 00:37:27;;;;;;;14.80;2.05;;;8.40;99.90;;;;;;4987606;28;20398;-62
2022/12/31 00:39:55;;;;;;;16.02;3.58;;;8.50;99.90;;;;;;4987479;28;20379;-59
2022/12/31 00:42:23;;;;;;;25.85;2.53;;;8.50;99.90;;;;;;4986682;28;20051;-60
2022/12/31 00:44:51;;;;;;;27.15;4.20;;;8.50;99.90;;;;;;4980760;28;20050;-58
2022/12/31 00:47:19;;;;;;;12.02;1.58;;;8.50;99.90;;;;;;4987257;28;20414;-58
2022/12/31 00:49:46;;;;;;;16.63;2.13;;;8.50;99.90;;;;;;4987713;28;20050;-59
2022/12/31 00:52:15;;;;;;;19.13;1.38;;;8.40;99.90;;;;;;4987771;28;20049;-60
2022/12/31 00:54:43;;;;;;;18.13;2.25;;;8.50;99.90;;;;;;4996296;28;20053;-60
2022/12/31 00:57:11;;;;;;;22.95;4.07;;;8.40;99.90;;;;;;5005466;28;20057;-58
2022/12/31 00:59:38;;;;;;;11.23;1.55;;;8.40;99.90;;;;;;4988927;28;20051;-59
2022/12/31 01:02:06;;;;;;;14.73;2.03;;;8.40;99.90;;;;;;4985443;28;20058;-58
2022/12/31 01:04:34;;;;;;;16.65;2.50;;;8.30;99.90;;;;;;4984437;28;20490;-59
2022/12/31 01:07:02;;;;;;;15.52;2.20;;;8.30;99.90;;;;;;4985725;28;20043;-58
2022/12/31 01:09:29;;;;;;;8.32;1.63;;;8.30;99.90;;;;;;4987289;28;20046;-60
2022/12/31 01:11:57;;;;;;;12.52;2.28;;;8.30;99.90;;;;;;5019497;28;20253;-59
2022/12/31 01:14:25;;;;;;;15.88;2.35;;;8.20;99.90;;;;;;4993408;28;20050;-59
2022/12/31 01:16:53;;;;;;;12.90;2.00;;;8.10;99.90;;;;;;4989279;28;20429;-59
2022/12/31 01:19:28;;;;;;;13.15;1.70;;;8.10;99.90;;;;;;5025999;28;20057;-61
2022/12/31 01:21:56;;;;;;;11.63;1.77;;;8.10;99.90;;;;;;4989364;28;20058;-61
2022/12/31 01:24:24;;;;;;;16.98;3.58;;;8.10;99.90;;;;;;4995371;28;20057;-59
2022/12/31 01:26:56;;;;;;;18.50;2.63;;;8.10;99.90;;;;;;4990659;28;20399;-58
2022/12/31 01:29:25;;;;;;;21.10;4.03;;;8.10;99.90;;;;;;5018615;28;20172;-58
2022/12/31 01:31:53;;;;;;;15.10;1.85;;;8.10;99.90;;;;;;4994285;28;20065;-58
2022/12/31 01:34:20;;;;;;;17.08;2.42;;;8.10;99.90;;;;;;5001671;28;20050;-58
2022/12/31 01:36:48;;;;;;;20.45;2.35;;;8.10;99.90;;;;;;4994348;28;20046;-57
2022/12/31 01:39:16;;;;;;;17.92;2.25;;;8.10;99.90;;;;;;5001967;28;20049;-59
2022/12/31 01:41:46;;;;;;;24.75;2.83;;;8.10;99.90;;;;;;4991739;28;20062;-62
2022/12/31 01:44:25;;;;;;;22.15;2.92;;;8.20;99.90;;;;;;4984908;28;20057;-61
2022/12/31 01:46:55;;;;;;;13.93;2.53;;;8.20;99.90;;;;;;4993213;28;20050;-58
2022/12/31 01:49:25;;;;;;;15.93;2.50;;;8.20;99.90;;;;;;4991177;28;20038;-59
2022/12/31 01:52:18;;;;;;;13.90;1.40;;;8.20;99.90;;;;;;4991399;28;20050;-58
2022/12/31 01:55:14;;;;;;;19.58;2.40;;;8.30;99.90;;;;;;5004173;28;20054;-57
2022/12/31 01:57:45;;;;;;;13.00;2.08;;;8.30;99.90;;;;;;4993046;28;20050;-59
2022/12/31 02:00:13;;;;;;;12.05;1.77;;;8.30;99.90;;;;;;5001913;28;20039;-58
2022/12/31 02:02:43;;;;;;;12.50;1.90;;;8.30;99.90;;;;;;5003469;28;20061;-58
2022/12/31 02:05:18;;;;;;;13.45;1.88;;;8.30;99.90;;;;;;4988293;28;20046;-61
2022/12/31 02:07:47;;;;;;;14.93;1.83;;;8.30;99.90;;;;;;5001847;28;20588;-58
2022/12/31 02:10:15;;;;;;;11.90;1.75;;;8.30;99.90;;;;;;5003403;28;20053;-58
2022/12/31 02:12:42;;;;;;;21.48;2.63;;;8.30;99.90;;;;;;5000218;28;20053;-61
2022/12/31 02:15:10;;;;;;;15.80;2.10;;;8.30;99.90;;;;;;4999956;28;20054;-61
2022/12/31 02:17:44;;;;;;;18.70;1.80;;;8.20;99.90;;;;;;4990032;28;20038;-61
2022/12/31 02:20:17;;;;;;;19.33;2.55;;;8.20;99.90;;;;;;4990313;28;20038;-61
2022/12/31 02:23:07;;;;;;;14.43;1.70;;;8.20;99.90;;;;;;4990151;28;20053;-62
2022/12/31 02:25:44;;;;;;;6.90;1.40;;;8.20;99.90;;;;;;5011249;28;20053;-59
2022/12/31 02:28:14;;;;;;;12.15;1.55;;;8.20;99.90;;;;;;4994155;28;20509;-59
2022/12/31 02:30:46;;;;;;;14.43;3.10;;;8.10;99.90;;;;;;4988809;28;20062;-61
2022/12/31 02:33:21;;;;;;;13.70;2.67;;;8.10;99.90;;;;;;4992731;28;20042;-63
2022/12/31 02:36:04;;;;;;;12.10;1.90;;;8.10;99.90;;;;;;5000661;28;20046;-62
2022/12/31 02:38:41;;;;;;;17.85;2.85;;;8.10;99.90;;;;;;5012013;28;20046;-60
2022/12/31 02:44:00;;;;;;;16.08;2.10;;;8.10;99.90;;;;;;5007164;28;20394;-59
2022/12/31 02:46:41;;;;;;;13.52;2.00;;;8.10;99.90;;;;;;4988655;28;20096;-59
2022/12/31 02:49:14;;;;;;;11.00;2.33;;;8.10;99.90;;;;;;4987761;28;20039;-59
2022/12/31 02:51:53;;;;;;;15.88;2.45;;;8.10;99.90;;;;;;4997147;28;20045;-58
2022/12/31 02:54:49;;;;;;;13.18;1.80;;;8.10;99.90;;;;;;4992881;28;20049;-58
2022/12/31 02:57:33;;;;;;;13.73;1.90;;;8.10;99.90;;;;;;5007150;28;20042;-57
2022/12/31 03:02:52;;;;;;;11.45;1.50;;;8.20;99.90;;;;;;4990096;28;20371;-58
2022/12/31 03:05:23;;;;;;;13.07;1.50;;;8.20;99.90;;;;;;4991918;28;20047;-58
2022/12/31 03:07:52;;;;;;;19.02;2.88;;;8.10;99.90;;;;;;4992971;28;20509;-58
2022/12/31 03:10:20;;;;;;;11.43;1.48;;;8.20;99.90;;;;;;4992751;28;20418;-59
2022/12/31 03:12:49;;;;;;;10.57;1.63;;;8.20;99.90;;;;;;4992405;28;20474;-58
2022/12/31 03:15:20;;;;;;;15.02;1.83;;;8.20;99.90;;;;;;4992826;28;20068;-58
2022/12/31 03:18:06;;;;;;;6.07;1.25;;;8.20;99.90;;;;;;4992535;28;20046;-58
2022/12/31 03:23:37;;;;;;;8.98;1.67;;;8.20;99.90;;;;;;4987734;28;20051;-59
2022/12/31 03:26:10;;;;;;;10.43;2.15;;;8.20;99.90;;;;;;5000883;28;20042;-59
2022/12/31 03:28:40;;;;;;;17.30;2.30;;;8.20;99.90;;;;;;4995790;28;20046;-59
2022/12/31 03:31:08;;;;;;;9.27;1.67;;;8.20;99.90;;;;;;5005992;28;20057;-59
2022/12/31 03:33:39;;;;;;;12.63;2.05;;;8.30;99.90;;;;;;4999571;28;20402;-59
2022/12/31 03:36:10;;;;;;;7.32;1.60;;;8.20;99.90;;;;;;5005987;28;20049;-59
2022/12/31 03:38:38;;;;;;;16.35;2.20;;;8.30;99.90;;;;;;5009910;28;20496;-59
2022/12/31 03:41:08;;;;;;;8.68;2.92;;;8.30;99.90;;;;;;5005369;28;20049;-59
2022/12/31 03:43:35;;;;;;;13.43;2.10;;;8.20;99.90;;;;;;5008919;28;20056;-59
2022/12/31 03:46:03;;;;;;;7.53;1.80;;;8.30;99.90;;;;;;4992597;28;20043;-59
2022/12/31 03:48:31;;;;;;;10.90;1.52;;;8.20;99.90;;;;;;4999359;28;20485;-58
2022/12/31 03:50:59;;;;;;;13.85;1.88;;;8.20;99.90;;;;;;5001038;28;20132;-59
2022/12/31 03:53:26;;;;;;;6.75;1.77;;;8.20;99.90;;;;;;4997538;28;20053;-57
2022/12/31 03:55:54;;;;;;;10.95;2.17;;;8.20;99.90;;;;;;5004696;28;20042;-58
2022/12/31 03:58:22;;;;;;;9.60;1.85;;;8.30;99.90;;;;;;4993689;28;20065;-58
2022/12/31 04:00:50;;;;;;;11.10;2.08;;;8.20;99.90;;;;;;4991111;28;20046;-58
2022/12/31 04:03:17;;;;;;;13.95;2.13;;;8.20;99.90;;;;;;5001100;28;20045;-58
2022/12/31 04:05:52;;;;;;;13.20;2.10;;;8.30;99.90;;;;;;4997343;28;20053;-58
2022/12/31 04:08:19;;;;;;;6.15;1.80;;;8.20;99.90;;;;;;5009041;28;20050;-58
2022/12/31 04:10:47;;;;;;;14.60;2.97;;;8.30;99.90;;;;;;5001899;28;20042;-58
2022/12/31 04:13:14;;;;;;;13.23;2.30;;;8.30;99.90;;;;;;4995832;28;20046;-58
2022/12/31 04:15:42;;;;;;;8.95;1.92;;;8.30;99.90;;;;;;4991231;28;20054;-57
2022/12/31 04:18:10;;;;;;;9.13;2.35;;;8.30;99.90;;;;;;5000480;28;20061;-57
2022/12/31 04:20:37;;;;;;;12.02;4.18;;;8.30;99.90;;;;;;4992654;28;20042;-58
2022/12/31 04:23:05;;;;;;;14.35;2.25;;;8.30;99.90;;;;;;4990455;28;20122;-58
2022/12/31 04:25:33;;;;;;;12.63;1.65;;;8.30;99.90;;;;;;4992225;28;20046;-58
2022/12/31 04:28:00;;;;;;;11.40;2.40;;;8.30;99.90;;;;;;4992722;28;20073;-58
2022/12/31 04:30:28;;;;;;;11.68;1.90;;;8.30;99.90;;;;;;4991758;28;20406;-59
2022/12/31 04:32:55;;;;;;;16.83;2.97;;;8.30;99.90;;;;;;5006582;28;20046;-57
2022/12/31 04:35:23;;;;;;;13.55;2.13;;;8.30;99.90;;;;;;4993365;28;20494;-57
2022/12/31 04:37:51;;;;;;;12.52;2.10;;;8.20;99.90;;;;;;5000864;28;20137;-58
2022/12/31 04:40:18;;;;;;;10.20;1.80;;;8.30;99.90;;;;;;4989883;28;20046;-57
2022/12/31 04:42:46;;;;;;;7.88;1.90;;;8.30;99.90;;;;;;4986859;28;20050;-58
2022/12/31 04:45:13;;;;;;;11.60;1.65;;;8.20;99.90;;;;;;4997207;28;20045;-57
2022/12/31 04:47:42;;;;;;;7.93;1.60;;;8.20;99.90;;;;;;4994598;28;20046;-58
2022/12/31 04:50:10;;;;;;;11.45;1.33;;;8.20;99.90;;;;;;5004386;28;20278;-59
2022/12/31 04:52:37;;;;;;;21.40;2.25;;;8.20;99.90;;;;;;5009702;28;20050;-58
2022/12/31 04:55:09;;;;;;;9.10;1.70;;;8.20;99.90;;;;;;5001380;28;20065;-58
2022/12/31 04:57:37;;;;;;;13.13;1.60;;;8.20;99.90;;;;;;5002177;28;20051;-58
2022/12/31 05:00:06;;;;;;;7.60;1.88;;;8.20;99.90;;;;;;5012225;28;20474;-58
2022/12/31 05:02:34;;;;;;;9.53;1.97;;;8.20;99.90;;;;;;4994220;28;20050;-61
2022/12/31 05:05:02;;;;;;;6.65;1.52;;;8.10;99.90;;;;;;4983520;28;20444;-61
2022/12/31 05:07:29;;;;;;;9.18;1.50;;;8.20;99.90;;;;;;4998816;28;20054;-61
2022/12/31 05:09:57;;;;;;;7.40;1.67;;;8.10;99.90;;;;;;5004136;28;20046;-62
2022/12/31 05:12:25;;;;;;;8.50;1.42;;;8.20;99.90;;;;;;4995944;28;20057;-59
2022/12/31 05:14:52;;;;;;;14.38;1.65;;;8.10;99.90;;;;;;5003009;28;20037;-59
2022/12/31 05:17:20;;;;;;;6.38;1.33;;;8.20;99.90;;;;;;4994877;28;20530;-58
2022/12/31 05:19:48;;;;;;;6.82;1.30;;;8.20;99.90;;;;;;4993620;28;20054;-58
2022/12/31 05:22:27;;;;;;;18.17;2.35;;;8.20;99.90;;;;;;4982373;28;20042;-57
2022/12/31 05:24:59;;;;;;;12.75;1.52;;;8.20;99.90;;;;;;4994216;28;20419;-57
2022/12/31 05:27:29;;;;;;;14.57;1.48;;;8.20;99.90;;;;;;4994486;28;20053;-57
2022/12/31 05:29:58;;;;;;;20.33;2.00;;;8.40;99.90;;;;;;4994350;28;20046;-59
2022/12/31 05:32:27;;;;;;;7.65;1.83;;;8.20;99.90;;;;;;4995098;28;20398;-58
2022/12/31 05:34:56;;;;;;;15.98;2.50;;;8.20;99.90;;;;;;5000590;28;20041;-58
2022/12/31 05:37:25;;;;;;;19.05;2.40;;;8.20;99.90;;;;;;5012334;28;20042;-56
2022/12/31 05:39:52;;;;;;;10.55;1.35;;;8.20;99.90;;;;;;5001178;28;20061;-57
2022/12/31 05:42:20;;;;;;;4.78;1.50;;;8.20;99.90;;;;;;4995141;28;20048;-57
2022/12/31 05:44:48;;;;;;;6.43;1.88;;;8.20;99.90;;;;;;5011017;28;20049;-57
2022/12/31 05:47:16;;;;;;;8.65;1.52;;;8.20;99.90;;;;;;4995481;28;20042;-58
2022/12/31 05:49:44;;;;;;;8.25;1.35;;;8.20;99.90;;;;;;4995355;28;20482;-60
2022/12/31 05:52:12;;;;;;;8.45;1.40;;;8.10;99.90;;;;;;4989715;28;20475;-60
2022/12/31 05:54:39;;;;;;;9.68;1.70;;;8.30;99.90;;;;;;5001076;28;20054;-60
2022/12/31 05:57:07;;;;;;;11.43;1.50;;;8.20;99.90;;;;;;4994678;28;20494;-60
2022/12/31 05:59:35;;;;;;;5.55;1.40;;;8.30;99.90;;;;;;4992199;28;20042;-60
2022/12/31 06:02:03;;;;;;;3.80;1.42;;;8.30;99.90;;;;;;4989469;28;20505;-59
2022/12/31 06:04:30;;;;;;;8.35;2.67;;;8.30;99.90;;;;;;4994725;28;20041;-59
2022/12/31 06:06:58;;;;;;;13.82;2.58;;;8.30;99.90;;;;;;4990208;28;20405;-60
2022/12/31 06:09:26;;;;;;;5.90;1.63;;;8.30;99.90;;;;;;4986926;28;20042;-59
2022/12/31 06:11:53;;;;;;;2.67;2.08;;;8.30;99.90;;;;;;4991778;28;20049;-58
2022/12/31 06:14:21;;;;;;;7.20;2.10;;;8.40;99.90;;;;;;4979137;28;20062;-59
2022/12/31 06:16:49;;;;;;;3.03;1.52;;;8.40;99.90;;;;;;4992644;28;20049;-59
2022/12/31 06:19:16;;;;;;;6.80;1.40;;;8.40;99.90;;;;;;4991145;28;20394;-58
2022/12/31 06:21:44;;;;;;;2.58;0.98;;;8.40;99.90;;;;;;4993278;28;20042;-62
2022/12/31 06:24:11;;;;;;;4.65;1.17;;;8.40;99.90;;;;;;4988625;28;20054;-60
2022/12/31 06:26:39;;;;;;;1.95;1.40;;;8.50;99.90;;;;;;4994085;28;20057;-61
2022/12/31 06:29:07;;;;;;;4.43;1.63;;;8.50;99.90;;;;;;4987032;28;20046;-61
2022/12/31 06:31:36;;;;;;;6.88;2.42;;;8.50;99.90;;;;;;4988430;28;20054;-62
2022/12/31 06:34:03;;;;;;;7.03;1.95;;;8.50;99.90;;;;;;4995911;28;20057;-59
2022/12/31 06:36:31;;;;;;;4.63;1.92;;;8.40;99.90;;;;;;5001151;28;20413;-58
2022/12/31 06:39:00;;;;;;;8.52;2.65;;;8.40;99.90;;;;;;5000086;28;20046;-61
2022/12/31 06:41:27;;;;;;;6.32;2.83;;;8.50;99.90;;;;;;5002002;28;20062;-59
2022/12/31 06:43:55;;;;;;;10.75;3.13;;;8.50;99.90;;;;;;4993368;28;20057;-59
2022/12/31 06:46:24;;;;;;;3.33;1.95;;;8.50;99.90;;;;;;4989329;28;20057;-60
2022/12/31 06:48:52;;;;;;;6.03;1.80;;;8.50;99.90;;;;;;4991028;28;20050;-58
2022/12/31 06:51:20;;;;;;;3.88;1.60;;;8.50;99.90;;;;;;4985832;28;20053;-58
2022/12/31 06:53:50;;;;;;;3.35;0.95;;;8.50;99.90;;;;;;4993642;28;20061;-60
2022/12/31 06:56:24;;;;;;;2.10;1.07;;;8.50;99.90;;;;;;4995326;28;20038;-58
2022/12/31 06:59:00;;;;;;;2.65;1.10;;;8.50;99.90;;;;;;4988171;28;20042;-58
2022/12/31 07:01:43;;;;;;;1.48;1.20;;;8.50;99.90;;;;;;4984548;28;20062;-59
2022/12/31 07:04:45;;;;;;;2.88;0.98;;;8.50;99.90;;;;;;4996201;28;20490;-58
2022/12/31 07:07:37;;;;;;;5.50;1.08;;;8.50;99.90;;;;;;4987294;28;20522;-62
2022/12/31 07:10:16;;;;;;;3.78;1.48;;;8.50;99.90;;;;;;4988605;28;20521;-61
2022/12/31 07:12:52;;;;;;;10.05;1.90;;;8.50;99.90;;;;;;4990829;28;20046;-61
2022/12/31 07:15:51;;;;;;;6.25;2.00;;;8.50;99.90;;;;;;4982539;28;20046;-61
2022/12/31 07:18:41;;;;;;;11.07;3.40;;;8.50;99.90;;;;;;4985630;28;20058;-63
2022/12/31 07:21:12;;;;;;;4.50;1.80;;;8.50;99.90;;;;;;4984877;28;20304;-61
2022/12/31 07:23:41;;;;;;;6.55;1.92;;;8.50;99.90;;;;;;4984187;28;20049;-61
2022/12/31 07:26:20;;;;;;;5.80;2.00;;;8.40;99.90;;;;;;4995926;28;20042;-64
2022/12/31 07:29:03;;;;;;;5.05;1.88;;;8.40;99.90;;;;;;4988506;28;20062;-60
2022/12/31 07:31:56;;;;;;;8.90;1.98;;;8.40;99.90;;;;;;4989249;28;20042;-60
2022/12/31 07:34:45;;;;;;;5.75;2.13;;;8.40;99.90;;;;;;4988799;28;20494;-61
2022/12/31 07:37:31;;;;;;;5.35;1.85;;;8.40;99.90;;;;;;5019794;28;20050;-62
2022/12/31 07:40:05;;;;;;;4.65;1.98;;;8.40;99.90;;;;;;4994327;28;20050;-62
2022/12/31 07:42:52;;;;;;;4.32;2.13;;;8.40;99.90;;;;;;4991630;28;20505;-59
2022/12/31 07:45:24;;;;;;;5.10;2.08;;;8.40;99.90;;;;;;4989476;28;20042;-58
2022/12/31 07:47:52;;;;;;;6.65;2.00;;;8.40;99.90;;;;;;4987653;28;20054;-57
2022/12/31 07:50:27;;;;;;;4.50;1.70;;;8.40;99.90;;;;;;4987182;28;20065;-59
2022/12/31 07:52:55;;;;;;;5.80;1.60;;;8.40;99.90;;;;;;4986242;28;20493;-58
2022/12/31 07:55:22;;;;;;;3.25;1.70;;;8.40;99.90;;;;;;4988384;28;20057;-59
2022/12/31 07:58:00;;;;;;;4.63;1.90;;;8.30;99.90;;;;;;4987869;28;20042;-59
2022/12/31 08:00:29;;;;;;;2.22;1.52;;;8.30;99.90;;;;;;4986069;28;20053;-61
2022/12/31 08:03:22;;;;;;;3.25;1.58;;;8.30;99.90;;;;;;4984394;28;20395;-64
2022/12/31 08:06:01;;;;;;;4.43;1.50;;;8.30;99.90;;;;;;4984245;28;20050;-59
2022/12/31 08:08:40;;;;;;;5.68;1.77;;;8.30;99.90;;;;;;4986834;28;20050;-60
2022/12/31 08:11:26;;;;;;;5.25;1.80;;;8.20;99.90;;;;;;4987498;28;20050;-58
2022/12/31 08:13:55;;;;;;;5.53;1.73;;;8.20;99.90;;;;;;4984446;28;20434;-60
2022/12/31 08:16:23;;;;;;;4.53;2.00;;;8.20;99.90;;;;;;4986462;28;20544;-59
2022/12/31 08:18:51;;;;;;;8.05;2.65;;;8.20;99.90;;;;;;4988284;28;20046;-60
2022/12/31 08:21:22;;;;;;;7.82;2.63;;;8.20;99.90;;;;;;4986944;28;20046;-60
2022/12/31 08:24:19;;;;;;;6.70;2.97;;;8.20;99.90;;;;;;4985956;28;20042;-60
2022/12/31 08:27:22;;;;;;;7.50;2.38;;;8.10;99.90;;;;;;5000532;28;20046;-59
2022/12/31 08:30:12;;;;;;;4.28;2.40;;;8.10;99.90;;;;;;4995840;28;20047;-59
2022/12/31 08:32:56;;;;;;;8.80;2.42;;;8.10;99.90;;;;;;4993450;28;20509;-59
2022/12/31 08:35:31;;;;;;;8.13;2.90;;;8.20;99.90;;;;;;4977543;28;20054;-59
2022/12/31 08:38:11;;;;;;;8.00;3.03;;;8.20;99.90;;;;;;4990370;28;20042;-58
2022/12/31 08:41:07;;;;;;;5.25;2.33;;;8.30;99.90;;;;;;4991298;28;20061;-59
2022/12/31 08:43:39;;;;;;;6.78;3.50;;;8.30;99.90;;;;;;4986389;28;20054;-59
2022/12/31 08:46:17;;;;;;;11.88;3.35;;;8.30;99.90;;;;;;4990322;28;20050;-58
2022/12/31 08:48:47;;;;;;;11.65;3.20;;;8.30;99.90;;;;;;4989143;28;20054;-58
2022/12/31 08:51:21;;;;;;;8.23;3.20;;;8.30;99.90;;;;;;4991557;28;20054;-60
2022/12/31 08:53:50;;;;;;;8.88;3.47;;;8.40;99.90;;;;;;4990263;28;20296;-58
2022/12/31 08:56:17;;;;;;;8.40;3.72;;;8.40;99.90;;;;;;4998351;28;20049;-58
2022/12/31 08:58:58;;;;;;;7.70;3.63;;;8.40;99.90;;;;;;4990326;28;20046;-58
2022/12/31 09:01:34;;;;;;;8.85;3.75;;;8.40;99.90;;;;;;4986072;28;20093;-59
2022/12/31 09:04:19;;;;;;;10.18;3.95;;;8.40;99.90;;;;;;4992833;28;20398;-58
2022/12/31 09:06:57;;;;;;;10.65;3.75;;;8.40;99.90;;;;;;4986609;28;20038;-58
2022/12/31 09:09:41;;;;;;;9.68;3.95;;;8.50;99.90;;;;;;4988422;28;20058;-58
2022/12/31 09:12:45;;;;;;;14.23;4.18;;;8.50;99.90;;;;;;4992122;28;20513;-59
2022/12/31 09:15:19;;;;;;;12.38;4.68;;;8.50;99.90;;;;;;4987501;28;20054;-58
2022/12/31 09:17:49;;;;;;;8.68;3.85;;;8.50;99.90;;;;;;4989246;28;20049;-59
2022/12/31 09:20:23;;;;;;;13.15;4.47;;;8.50;99.90;;;;;;4988394;28;20039;-57
2022/12/31 09:22:52;;;;;;;10.73;3.83;;;8.50;99.90;;;;;;4990161;28;20046;-58
2022/12/31 09:25:21;;;;;;;10.85;4.18;;;8.50;99.90;;;;;;4991728;28;20054;-59
2022/12/31 09:28:25;;;;;;;9.35;4.75;;;8.50;99.90;;;;;;4998896;28;20513;-58
2022/12/31 09:30:55;;;;;;;15.52;5.10;;;8.50;99.90;;;;;;4989310;28;20054;-59
2022/12/31 09:33:35;;;;;;;15.63;5.80;;;8.60;99.90;;;;;;4989598;28;20046;-57
2022/12/31 09:36:06;;;;;;;20.92;7.38;;;8.60;99.90;;;;;;4989103;28;20038;-58
2022/12/31 09:38:46;;;;;;;20.67;7.78;;;8.60;99.90;;;;;;4966234;28;20043;-59
2022/12/31 09:41:47;;;;;;;23.73;8.10;;;8.60;99.90;;;;;;4984096;28;20062;-59
2022/12/31 09:44:33;;;;;;;26.38;8.55;;;8.60;99.90;;;;;;4986111;28;20061;-58
2022/12/31 09:47:49;;;;;;;24.00;7.78;;;8.60;99.90;;;;;;4983228;28;20066;-58
2022/12/31 09:50:45;;;;;;;20.38;6.47;;;8.60;99.90;;;;;;4961980;28;20418;-58
2022/12/31 09:53:37;;;;;;;24.58;6.18;;;8.60;99.90;;;;;;4971062;28;20058;-58
2022/12/31 09:56:19;;;;;;;21.95;6.55;;;8.60;99.90;;;;;;4982327;28;20054;-58
2022/12/31 09:59:11;;;;;;;21.67;6.78;;;8.70;99.90;;;;;;4983888;28;20510;-58
2022/12/31 10:01:52;;;;;;;18.08;4.97;;;8.60;99.90;;;;;;4985133;28;20383;-58
2022/12/31 10:04:46;;;;;;;16.65;5.82;;;8.70;99.90;;;;;;4999998;28;20050;-58
2022/12/31 10:07:31;;;;;;;22.75;6.10;;;8.60;99.90;;;;;;4986289;28;20050;-60
2022/12/31 10:10:17;;;;;;;17.80;6.30;;;8.70;99.90;;;;;;4978755;28;20073;-61
2022/12/31 10:13:01;;;;;;;25.75;6.47;;;8.70;99.90;;;;;;4984384;28;20251;-61
2022/12/31 10:15:38;;;;;;;25.20;5.63;;;8.70;99.90;;;;;;4981342;28;20049;-61
2022/12/31 10:18:30;;;;;;;22.88;7.00;;;8.70;99.90;;;;;;4985666;28;20046;-59
2022/12/31 10:21:04;;;;;;;40.90;11.07;;;8.70;99.90;;;;;;4984970;28;20053;-59
2022/12/31 10:23:44;;;;;;;28.05;7.05;;;8.70;99.90;;;;;;4996512;28;20057;-58
2022/12/31 10:26:17;;;;;;;14.85;5.90;;;9.10;99.90;;;;;;4993862;28;20049;-60
2022/12/31 10:28:58;;;;;;;13.55;4.40;;;8.70;99.90;;;;;;4981475;28;20517;-57
2022/12/31 10:32:09;;;;;;;17.98;5.82;;;8.70;99.90;;;;;;4981972;28;20053;-58
2022/12/31 10:35:04;;;;;;;12.60;4.78;;;8.80;99.90;;;;;;4981662;28;20069;-59
2022/12/31 10:38:01;;;;;;;11.00;4.07;;;8.80;99.90;;;;;;4985604;28;20410;-59
2022/12/31 10:40:56;;;;;;;15.05;4.93;;;8.90;99.90;;;;;;4982346;28;20193;-58
2022/12/31 10:43:43;;;;;;;11.32;4.30;;;8.90;99.90;;;;;;4985599;28;20038;-59
2022/12/31 10:46:33;;;;;;;11.68;4.63;;;9.00;99.90;;;;;;4976737;28;20058;-59
2022/12/31 10:49:39;;;;;;;10.25;3.63;;;9.00;99.90;;;;;;4975946;28;20065;-57
2022/12/31 10:52:07;;;;;;;9.65;3.30;;;9.10;99.90;;;;;;4981656;28;20441;-60
2022/12/31 10:55:12;;;;;;;7.82;3.10;;;9.10;99.90;;;;;;4985885;28;20053;-60
2022/12/31 10:58:26;;;;;;;8.23;2.88;;;9.10;99.90;;;;;;4984023;28;20514;-59
2022/12/31 11:01:03;;;;;;;4.07;2.20;;;9.20;99.90;;;;;;4985882;28;20046;-58
2022/12/31 11:04:20;;;;;;;5.60;1.35;;;9.30;99.90;;;;;;4995674;28;20050;-57
2022/12/31 11:07:20;;;;;;;4.70;1.70;;;9.30;99.90;;;;;;4961940;28;20058;-59
2022/12/31 11:10:32;;;;;;;3.15;1.10;;;9.50;99.90;;;;;;4984164;28;20050;-59
2022/12/31 11:13:09;;;;;;;2.47;0.82;;;9.40;99.90;;;;;;4983450;28;20058;-60
2022/12/31 11:15:36;;;;;;;2.45;0.70;;;9.50;99.90;;;;;;4982886;28;20057;-60
2022/12/31 11:18:37;;;;;;;5.40;1.13;;;9.60;99.90;;;;;;4984682;28;20209;-58
2022/12/31 11:21:27;;;;;;;4.13;0.85;;;9.70;99.90;;;;;;4985074;28;20061;-60
2022/12/31 11:24:24;;;;;;;1.92;0.50;;;9.70;99.90;;;;;;4987234;28;20046;-60
2022/12/31 11:27:49;;;;;;;3.85;0.30;;;9.70;99.90;;;;;;4993790;28;20050;-58
2022/12/31 11:30:32;;;;;;;3.33;0.40;;;9.80;99.90;;;;;;5001475;28;20045;-59
2022/12/31 11:33:14;;;;;;;1.35;0.30;;;9.80;99.90;;;;;;4997427;28;20045;-58
2022/12/31 11:36:25;;;;;;;3.20;0.35;;;9.90;99.90;;;;;;4983311;28;20050;-59
2022/12/31 11:39:29;;;;;;;5.25;0.40;;;9.90;99.90;;;;;;5000506;28;20100;-59
2022/12/31 11:42:21;;;;;;;9.38;1.13;;;9.90;99.90;;;;;;4982908;28;20042;-59
2022/12/31 11:45:02;;;;;;;7.35;1.02;;;9.90;99.90;;;;;;4970604;28;20046;-59
2022/12/31 11:47:41;;;;;;;5.00;0.65;;;9.90;99.90;;;;;;4982417;28;20042;-60
2022/12/31 11:50:47;;;;;;;6.28;0.90;;;9.90;99.90;;;;;;4985147;28;20046;-60
2022/12/31 11:53:39;;;;;;;13.15;1.20;;;9.90;99.90;;;;;;4994318;28;20045;-60
2022/12/31 11:56:18;;;;;;;20.02;1.48;;;10.00;99.90;;;;;;4988073;28;20049;-61
2022/12/31 11:58:51;;;;;;;12.77;1.60;;;9.90;99.90;;;;;;4979921;28;20490;-60
2022/12/31 12:01:23;;;;;;;9.40;1.33;;;10.00;99.90;;;;;;4984700;28;20054;-59
2022/12/31 12:03:51;;;;;;;11.48;1.38;;;10.00;99.90;;;;;;4984730;28;20046;-58
2022/12/31 12:06:24;;;;;;;15.90;1.92;;;10.00;99.90;;;;;;4984097;28;20069;-59
2022/12/31 12:08:57;;;;;;;15.95;2.40;;;10.10;99.90;;;;;;4984242;28;20050;-58
2022/12/31 12:11:29;;;;;;;13.25;1.90;;;10.10;99.90;;;;;;4978720;28;20077;-59
2022/12/31 12:13:57;;;;;;;13.32;2.85;;;10.10;99.90;;;;;;4991977;28;20834;-59
2022/12/31 12:16:27;;;;;;;18.13;2.42;;;10.20;99.90;;;;;;4977958;28;20046;-59
2022/12/31 12:19:07;;;;;;;29.92;3.63;;;10.20;99.90;;;;;;4980405;28;20065;-58
2022/12/31 12:21:43;;;;;;;;;;;10.20;99.90;;;;;;4984238;28;20076;-59
2022/12/31 12:24:22;;;;;;;16.33;2.28;;;10.20;99.90;;;;;;4986436;28;19929;-60
2022/12/31 12:26:49;;;;;;;25.92;3.10;;;10.20;99.90;;;;;;4992252;28;20046;-61
2022/12/31 12:29:20;;;;;;;22.27;2.72;;;10.20;99.90;;;;;;4985675;28;20050;-59
2022/12/31 12:32:02;;;;;;;19.23;3.50;;;10.20;99.90;;;;;;4986465;28;20449;-60
2022/12/31 12:34:34;;;;;;;13.38;1.70;;;10.20;99.90;;;;;;4985237;28;20046;-59
2022/12/31 12:37:03;;;;;;;14.45;2.13;;;10.20;99.90;;;;;;4987088;28;20046;-58
2022/12/31 12:39:32;;;;;;;12.45;2.28;;;10.20;99.90;;;;;;4986885;28;20502;-59
2022/12/31 12:42:10;;;;;;;19.08;2.58;;;10.20;99.90;;;;;;4986392;28;20042;-59
2022/12/31 12:44:40;;;;;;;17.90;1.73;;;10.20;99.90;;;;;;5005777;28;20053;-58
2022/12/31 12:47:13;;;;;;;;;;;10.20;99.90;;;;;;4989401;28;20046;-59
2022/12/31 12:49:45;;;;;;;18.60;2.63;;;10.20;99.90;;;;;;4988666;28;19929;-59
2022/12/31 12:52:34;;;;;;;19.75;2.13;;;10.20;99.90;;;;;;4988377;28;20038;-59
2022/12/31 12:55:29;;;;;;;12.43;2.88;;;10.20;99.90;;;;;;4982269;28;20050;-58
2022/12/31 12:58:15;;;;;;;13.70;2.95;;;10.20;99.90;;;;;;4987869;28;20046;-59
2022/12/31 13:01:16;;;;;;;20.02;2.75;;;10.20;99.90;;;;;;4988496;28;20057;-58
2022/12/31 13:04:03;;;;;;;13.32;2.35;;;10.10;99.90;;;;;;4987510;28;20054;-59
2022/12/31 13:06:59;;;;;;;21.40;2.70;;;10.20;99.90;;;;;;4987141;28;20844;-59
2022/12/31 13:09:33;;;;;;;25.92;3.35;;;10.10;99.90;;;;;;4988241;28;20066;-59
2022/12/31 13:12:32;;;;;;;17.35;3.15;;;10.10;99.90;;;;;;4988599;28;20544;-59
2022/12/31 13:15:26;;;;;;;23.27;2.47;;;10.10;99.90;;;;;;4976308;28;20054;-59
2022/12/31 13:18:00;;;;;;;25.02;3.83;;;10.10;99.90;;;;;;4990657;28;20047;-59
2022/12/31 13:20:44;;;;;;;25.13;3.95;;;10.10;99.90;;;;;;5005588;28;20054;-58
2022/12/31 13:23:25;;;;;;;21.52;2.90;;;10.10;99.90;;;;;;4990179;28;20122;-58
2022/12/31 13:26:05;;;;;;;29.90;3.90;;;10.10;99.90;;;;;;4998527;28;20041;-59
2022/12/31 13:28:37;;;;;;;24.95;2.60;;;10.10;99.90;;;;;;4986577;28;20058;-58
2022/12/31 13:31:20;;;;;;;20.90;2.63;;;10.10;99.90;;;;;;4991377;28;20379;-59
2022/12/31 13:33:54;;;;;;;24.17;2.63;;;10.10;99.90;;;;;;4993275;28;20046;-58
2022/12/31 13:36:26;;;;;;;24.58;3.65;;;10.10;99.90;;;;;;4991716;28;20047;-59
2022/12/31 13:38:56;;;;;;;17.80;2.08;;;10.10;99.90;;;;;;4990784;28;20054;-60
2022/12/31 13:41:30;;;;;;;17.77;2.20;;;10.10;99.90;;;;;;4991360;28;20054;-58
2022/12/31 13:44:07;;;;;;;21.15;2.80;;;10.10;99.90;;;;;;4989637;28;20042;-59